Skip Navigation Links
NOAA logo - Click to go to the NOAA homepage
NOAA's National Weather Service
Alaska Aviation Weather Unit
  NWS logo - Click to go to the NWS homepage
Left Navbar Graphic     00 AKDT = 08 GMT

   
NOAA is celebrating 200 years of science, service, and stewardship. Visit the NOAA 200th celebration Web site to learn more.
USA.gov is the U.S. Government's official Web portal to all Federal, state and local government Web resources and services.
Facebook
NWS on Facebook

AAWU Home :: Display TAF Add Bookmark
METAR PAPB 230253Z AUTO 06011KT 10SM CLR M01/M07 A3003 RMK AO2 SLP157
     T10111072 53004 TSNO=

METAR PAPB 230353Z AUTO 05012KT 10SM CLR M02/M08 A3003 RMK AO2
 SLP156 T10171078 TSNO=

METAR PAPB 230453Z AUTO 06010KT 10SM CLR M02/M08 A3003 RMK AO2 SLP159
     T10221078 TSNO=

METAR PAPB 230553Z AUTO 06009KT 10SM CLR M03/M08 A3004 RMK AO2 SLP161
     T10331083 10000 21033 53004 TSNO=

METAR PAPB 230653Z AUTO 06008KT 10SM CLR M06/M09 A3005 RMK AO2 SLP163
     T10561094 TSNO=

METAR PAPB 230753Z AUTO 07012KT 10SM CLR M04/M08 A3006 RMK AO2 SLP168
     T10391078 TSNO=


NOAA's National Weather Service
Alaska Aviation Weather Unit
6930 Sand Lake Road
Anchorage, AK 99502-1845
Disclaimer
Credits
Glossary
Privacy Policy
About Us
Career Opportunities
Contact AAWU Internet Services Site last modified: April, 17th 2012